Time;durP1;ratioP1;P1;durP2;ratioP2;P2;SDS_P1;SDS_P2;PMS_P1;PMS_P2;Temp;Humidity;BMP_temperature;BMP_pressure;BME280_temperature;BME280_humidity;BME280_pressure;Samples;Min_cycle;Max_cycle;Signal;HPM_P1;HPM_P2
2022/07/06 00:02:19;;;;;;;;;;;;;;;20.73;100.00;97318.16;5014644;28;19924;-77
2022/07/06 00:04:44;;;;;;;;;;;;;;;20.74;100.00;97303.50;5014639;28;19913;-78
2022/07/06 00:07:10;;;;;;;;;;;;;;;20.67;100.00;97288.03;5010970;28;20012;-78
2022/07/06 00:09:35;;;;;;;;;;;;;;;20.67;100.00;97272.59;5010965;28;19925;-77
2022/07/06 00:12:01;;;;;;;;;;;;;;;20.67;100.00;97252.69;5010815;28;19964;-76
2022/07/06 00:14:26;;;;;;;;;;;;;;;20.60;100.00;97230.75;5010941;28;19959;-75
2022/07/06 00:16:51;;;;;;;;;;;;;;;20.50;100.00;97228.19;5011453;28;19913;-77
2022/07/06 00:19:17;;;;;;;;;;;;;;;20.45;100.00;97213.38;5011008;28;19913;-76
2022/07/06 00:21:42;;;;;;;;;;;;;;;20.42;100.00;97206.41;5010739;28;19940;-78
2022/07/06 00:24:08;;;;;;;;;;;;;;;20.35;100.00;97194.50;5010469;28;19928;-77
2022/07/06 00:26:33;;;;;;;;;;;;;;;20.40;100.00;97199.41;5013908;28;19988;-77
2022/07/06 00:28:59;;;;;;;;;;;;;;;20.34;100.00;97205.50;5011857;28;19917;-77
2022/07/06 00:31:24;;;;;;;;;;;;;;;20.43;100.00;97231.69;5011074;28;20277;-78
2022/07/06 00:33:49;;;;;;;;;;;;;;;20.47;100.00;97239.38;5010621;28;19959;-77
2022/07/06 00:36:15;;;;;;;;;;;;;;;20.49;100.00;97241.91;5010707;28;20369;-76
2022/07/06 00:38:40;;;;;;;;;;;;;;;20.60;100.00;97244.34;5011256;28;19920;-76
2022/07/06 00:41:06;;;;;;;;;;;;;;;20.64;100.00;97228.56;5010401;28;19921;-75
2022/07/06 00:43:50;;;;;;;;;;;;;;;20.69;100.00;97229.78;5010580;28;19917;-76
2022/07/06 00:46:16;;;;;;;;;;;;;;;20.67;100.00;97250.84;5013353;28;20000;-76
2022/07/06 00:48:41;;;;;;;;;;;;;;;20.66;100.00;97253.72;5010488;28;20120;-76
2022/07/06 00:51:07;;;;;;;;;;;;;;;20.66;100.00;97253.72;5013051;28;19913;-77
2022/07/06 00:53:32;;;;;;;;;;;;;;;20.64;100.00;97258.47;5013820;28;19913;-77
2022/07/06 00:55:57;;;;;;;;;;;;;;;20.71;100.00;97268.50;5013484;28;20330;-76
2022/07/06 00:58:23;;;;;;;;;;;;;;;20.63;100.00;97259.47;5015539;28;20380;-77
2022/07/06 01:00:48;;;;;;;;;;;;;;;20.61;100.00;97262.34;5014837;28;20044;-77
2022/07/06 01:03:14;;;;;;;;;;;;;;;20.55;100.00;97266.56;5016631;28;20407;-77
2022/07/06 01:05:39;;;;;;;;;;;;;;;20.58;100.00;97261.84;5014246;28;19975;-75
2022/07/06 01:08:04;;;;;;;;;;;;;;;20.52;100.00;97261.47;5015673;28;20391;-78
2022/07/06 01:10:30;;;;;;;;;;;;;;;20.53;100.00;97267.75;5017548;28;19913;-77
2022/07/06 01:12:55;;;;;;;;;;;;;;;20.49;100.00;97260.94;5014941;28;19967;-77
2022/07/06 01:15:22;;;;;;;;;;;;;;;20.49;100.00;97264.50;5017356;28;19912;-78
2022/07/06 01:17:47;;;;;;;;;;;;;;;20.52;100.00;97274.19;5014219;28;19913;-78
2022/07/06 01:20:17;;;;;;;;;;;;;;;20.56;100.00;97272.88;5017032;28;20039;-78
2022/07/06 01:22:42;;;;;;;;;;;;;;;20.48;100.00;97267.41;5016542;28;20415;-79
2022/07/06 01:25:08;;;;;;;;;;;;;;;20.46;100.00;97261.25;5013797;28;19913;-78
2022/07/06 01:27:38;;;;;;;;;;;;;;;20.49;100.00;97269.09;5015341;28;19917;-78
2022/07/06 01:30:05;;;;;;;;;;;;;;;20.60;100.00;97270.69;5017066;28;19924;-78
2022/07/06 01:32:30;;;;;;;;;;;;;;;20.60;100.00;97262.53;5014367;28;20315;-78
2022/07/06 01:34:55;;;;;;;;;;;;;;;20.62;100.00;97252.31;5013755;28;19913;-78
2022/07/06 01:37:21;;;;;;;;;;;;;;;20.69;100.00;97254.22;5014166;28;19956;-78
2022/07/06 01:39:46;;;;;;;;;;;;;;;20.74;100.00;97260.00;5014016;28;20439;-78
2022/07/06 01:42:11;;;;;;;;;;;;;;;20.76;100.00;97257.16;5013502;28;19917;-78
2022/07/06 01:44:37;;;;;;;;;;;;;;;20.74;100.00;97267.31;5016720;28;19971;-77
2022/07/06 01:47:02;;;;;;;;;;;;;;;20.81;100.00;97274.66;5014325;28;20277;-77
2022/07/06 01:49:28;;;;;;;;;;;;;;;20.82;100.00;97276.38;5016468;28;19913;-78
2022/07/06 01:51:53;;;;;;;;;;;;;;;20.89;100.00;97284.69;5013512;28;20296;-78
2022/07/06 01:54:18;;;;;;;;;;;;;;;20.92;100.00;97295.25;5013979;28;19959;-78
2022/07/06 01:56:44;;;;;;;;;;;;;;;20.99;100.00;97299.00;5013195;28;19917;-78
2022/07/06 01:59:09;;;;;;;;;;;;;;;20.95;100.00;97312.09;5014550;28;19914;-78
2022/07/06 02:01:35;;;;;;;;;;;;;;;20.99;100.00;97315.34;5016355;28;19924;-78
2022/07/06 02:04:00;;;;;;;;;;;;;;;20.86;100.00;97310.34;5016519;28;19913;-78
2022/07/06 02:06:25;;;;;;;;;;;;;;;20.84;100.00;97322.41;5016212;28;20024;-78
2022/07/06 02:08:51;;;;;;;;;;;;;;;20.86;100.00;97325.81;5016033;28;19913;-77
2022/07/06 02:11:17;;;;;;;;;;;;;;;20.80;100.00;97330.03;5015754;28;19966;-78
2022/07/06 02:13:42;;;;;;;;;;;;;;;20.82;100.00;97333.47;5013960;28;20380;-77
2022/07/06 02:16:08;;;;;;;;;;;;;;;20.81;100.00;97339.91;5013499;28;19918;-76
2022/07/06 02:18:33;;;;;;;;;;;;;;;20.77;100.00;97343.13;5016214;28;19990;-77
2022/07/06 02:20:59;;;;;;;;;;;;;;;20.69;100.00;97341.22;5012657;28;20384;-77
2022/07/06 02:23:25;;;;;;;;;;;;;;;20.61;100.00;97341.16;5015754;28;19940;-77
2022/07/06 02:25:51;;;;;;;;;;;;;;;20.65;100.00;97360.72;5015096;28;20456;-78
2022/07/06 02:28:16;;;;;;;;;;;;;;;20.70;100.00;97372.00;5014637;28;20000;-78
2022/07/06 02:30:42;;;;;;;;;;;;;;;20.65;100.00;97372.47;5012479;28;19913;-78
2022/07/06 02:33:07;;;;;;;;;;;;;;;20.62;100.00;97375.50;5003714;28;20373;-78
2022/07/06 02:35:32;;;;;;;;;;;;;;;20.49;100.00;97364.22;5012298;28;20340;-76
2022/07/06 02:37:58;;;;;;;;;;;;;;;20.46;100.00;97362.66;4996139;28;19975;-78
2022/07/06 02:40:23;;;;;;;;;;;;;;;20.50;100.00;97371.34;5012419;28;19964;-78
2022/07/06 02:42:49;;;;;;;;;;;;;;;20.42;100.00;97377.59;4995898;28;19925;-79
2022/07/06 02:45:14;;;;;;;;;;;;;;;20.46;100.00;97381.69;5012196;28;19921;-77
2022/07/06 02:47:39;;;;;;;;;;;;;;;20.52;100.00;97388.34;5012208;28;19924;-78
2022/07/06 02:50:05;;;;;;;;;;;;;;;20.47;100.00;97397.00;4995738;28;19987;-79
2022/07/06 02:52:30;;;;;;;;;;;;;;;20.48;100.00;97392.41;5003327;28;20296;-79
2022/07/06 02:54:56;;;;;;;;;;;;;;;20.45;100.00;97392.75;5005194;28;19920;-78
2022/07/06 02:57:21;;;;;;;;;;;;;;;20.48;100.00;97403.28;5012103;28;19967;-79
2022/07/06 02:59:49;;;;;;;;;;;;;;;20.51;100.00;97389.38;4995811;28;19913;-78
2022/07/06 03:02:15;;;;;;;;;;;;;;;20.57;100.00;97396.88;5011799;28;20373;-75
2022/07/06 03:04:40;;;;;;;;;;;;;;;20.62;100.00;97399.09;4995717;28;19928;-78
2022/07/06 03:07:05;;;;;;;;;;;;;;;20.58;100.00;97400.47;4995733;28;19913;-78
2022/07/06 03:09:31;;;;;;;;;;;;;;;20.59;100.00;97404.88;4995432;28;20266;-77
2022/07/06 03:11:56;;;;;;;;;;;;;;;20.60;100.00;97399.28;4995585;28;19913;-78
2022/07/06 03:14:21;;;;;;;;;;;;;;;20.61;100.00;97403.69;4995337;28;19921;-77
2022/07/06 03:16:47;;;;;;;;;;;;;;;20.64;100.00;97407.97;5011234;28;20016;-79
2022/07/06 03:19:12;;;;;;;;;;;;;;;20.69;100.00;97406.47;5011459;28;19913;-78
2022/07/06 03:21:37;;;;;;;;;;;;;;;20.68;100.00;97409.34;5006638;28;20298;-79
2022/07/06 03:24:03;;;;;;;;;;;;;;;20.73;100.00;97405.16;5011577;28;19964;-79
2022/07/06 03:26:29;;;;;;;;;;;;;;;20.85;100.00;97414.72;5011862;28;19960;-78
2022/07/06 03:28:54;;;;;;;;;;;;;;;20.75;100.00;97404.97;4999583;28;19914;-78
2022/07/06 03:31:19;;;;;;;;;;;;;;;20.77;100.00;97411.94;5011611;28;19957;-79
2022/07/06 03:33:51;;;;;;;;;;;;;;;20.89;100.00;97409.78;5005855;28;19925;-77
2022/07/06 03:36:16;;;;;;;;;;;;;;;20.94;100.00;97418.34;5001429;28;19996;-77
2022/07/06 03:38:41;;;;;;;;;;;;;;;20.96;100.00;97419.00;4998249;28;19960;-78
2022/07/06 03:41:07;;;;;;;;;;;;;;;21.02;100.00;97413.78;5011157;28;20266;-77
2022/07/06 03:43:32;;;;;;;;;;;;;;;21.08;100.00;97424.03;4999888;28;19913;-77
2022/07/06 03:45:58;;;;;;;;;;;;;;;21.06;100.00;97420.59;4997891;28;20511;-77
2022/07/06 03:48:23;;;;;;;;;;;;;;;21.14;100.00;97417.09;5002082;28;19928;-77
2022/07/06 03:50:49;;;;;;;;;;;;;;;21.16;100.00;97408.78;5006059;28;19913;-77
2022/07/06 03:53:14;;;;;;;;;;;;;;;21.24;100.00;97406.06;5010978;28;20004;-77
2022/07/06 03:55:39;;;;;;;;;;;;;;;21.20;100.00;97405.53;5001586;28;20364;-77
2022/07/06 03:58:05;;;;;;;;;;;;;;;21.26;100.00;97412.19;5010751;28;19921;-78
2022/07/06 04:00:30;;;;;;;;;;;;;;;21.40;100.00;97407.00;5011507;28;20380;-77
2022/07/06 04:02:56;;;;;;;;;;;;;;;21.46;100.00;97400.88;4994384;28;19917;-78
2022/07/06 04:05:22;;;;;;;;;;;;;;;21.51;100.00;97397.66;4994637;28;19972;-79
2022/07/06 04:07:48;;;;;;;;;;;;;;;21.62;100.00;97397.34;5000367;28;19968;-78
2022/07/06 04:10:14;;;;;;;;;;;;;;;21.71;100.00;97399.06;5010753;28;19917;-79
2022/07/06 04:12:40;;;;;;;;;;;;;;;21.76;100.00;97391.22;4994344;28;20076;-78
2022/07/06 04:15:05;;;;;;;;;;;;;;;21.86;100.00;97400.09;5010294;28;19909;-78
2022/07/06 04:20:15;;;;;;;;;;;;;;;22.07;100.00;97400.47;4991927;28;20305;-79
2022/07/06 04:22:40;;;;;;;;;;;;;;;22.07;100.00;97397.75;5010703;28;19917;-78
2022/07/06 04:25:06;;;;;;;;;;;;;;;22.19;100.00;97402.84;5010777;28;19924;-76
2022/07/06 04:27:31;;;;;;;;;;;;;;;22.19;100.00;97411.03;5010367;28;19988;-78
2022/07/06 04:29:56;;;;;;;;;;;;;;;22.15;100.00;97414.09;5007732;28;19913;-77
2022/07/06 04:32:22;;;;;;;;;;;;;;;22.12;100.00;97414.44;5009366;28;20385;-78
2022/07/06 04:34:47;;;;;;;;;;;;;;;22.17;100.00;97419.38;4995382;28;20003;-78
2022/07/06 04:37:12;;;;;;;;;;;;;;;22.15;100.00;97414.09;5010250;28;19919;-79
2022/07/06 04:39:38;;;;;;;;;;;;;;;22.26;100.00;97415.63;5009981;28;19913;-79
2022/07/06 04:42:03;;;;;;;;;;;;;;;22.23;100.00;97423.31;4998709;28;19917;-79
2022/07/06 04:44:28;;;;;;;;;;;;;;;22.08;100.00;97428.59;5025526;28;20315;-79
2022/07/06 04:46:54;;;;;;;;;;;;;;;21.87;100.00;97426.28;5010660;28;20312;-82
2022/07/06 04:49:19;;;;;;;;;;;;;;;21.87;100.00;97422.75;4994164;28;19914;-83
2022/07/06 04:51:45;;;;;;;;;;;;;;;21.75;100.00;97422.19;5007885;28;20288;-82
2022/07/06 04:54:10;;;;;;;;;;;;;;;21.73;100.00;97426.09;5003675;28;19960;-77
2022/07/06 04:56:35;;;;;;;;;;;;;;;21.73;100.00;97424.25;5003325;28;19980;-77
2022/07/06 04:59:01;;;;;;;;;;;;;;;21.71;100.00;97426.28;5001840;28;19961;-78
2022/07/06 05:01:26;;;;;;;;;;;;;;;21.71;100.00;97430.88;5010143;28;20348;-77
2022/07/06 05:03:52;;;;;;;;;;;;;;;21.73;100.00;97435.13;4998801;28;20343;-77
2022/07/06 05:06:18;;;;;;;;;;;;;;;21.65;100.00;97437.84;5011064;28;19928;-78
2022/07/06 05:08:43;;;;;;;;;;;;;;;21.61;100.00;97436.47;5022094;28;20350;-76
2022/07/06 05:11:08;;;;;;;;;;;;;;;21.62;100.00;97443.63;5009234;28;19913;-76
2022/07/06 05:13:34;;;;;;;;;;;;;;;22.05;100.00;97446.13;5011201;28;19959;-76
2022/07/06 05:15:59;;;;;;;;;;;;;;;22.35;100.00;97436.41;5018020;28;19917;-76
2022/07/06 05:18:24;;;;;;;;;;;;;;;22.69;100.00;97433.53;5010253;28;20372;-76
2022/07/06 05:20:50;;;;;;;;;;;;;;;22.83;100.00;97430.06;4999903;28;19913;-77
2022/07/06 05:23:15;;;;;;;;;;;;;;;23.29;100.00;97441.19;5006733;28;19923;-77
2022/07/06 05:25:40;;;;;;;;;;;;;;;23.69;100.00;97441.00;5007356;28;19917;-76
2022/07/06 05:28:06;;;;;;;;;;;;;;;24.56;100.00;97431.50;5009315;28;20331;-78
2022/07/06 05:30:31;;;;;;;;;;;;;;;26.34;95.38;97439.25;5022471;28;19920;-77
2022/07/06 05:32:57;;;;;;;;;;;;;;;26.52;93.11;97447.00;5009354;28;20400;-77
2022/07/06 05:35:22;;;;;;;;;;;;;;;25.99;93.73;97451.09;5025484;28;19917;-78
2022/07/06 05:37:47;;;;;;;;;;;;;;;25.81;94.27;97450.66;5009754;28;19914;-78
2022/07/06 05:40:13;;;;;;;;;;;;;;;25.72;94.12;97451.81;5025918;28;19920;-77
2022/07/06 05:42:38;;;;;;;;;;;;;;;25.44;95.25;97448.06;5009703;28;19953;-77
2022/07/06 05:45:04;;;;;;;;;;;;;;;25.48;98.00;97446.59;5012744;28;19920;-77
2022/07/06 05:50:14;;;;;;;;;;;;;;;24.74;100.00;97452.03;5001720;28;19924;-77
2022/07/06 05:52:44;;;;;;;;;;;;;;;24.70;100.00;97447.94;5030038;28;19917;-78
2022/07/06 05:55:10;;;;;;;;;;;;;;;24.75;100.00;97453.75;5010273;28;20005;-78
2022/07/06 05:57:35;;;;;;;;;;;;;;;24.71;100.00;97452.41;5012715;28;19972;-78
2022/07/06 06:00:01;;;;;;;;;;;;;;;24.64;100.00;97448.69;5014809;28;19917;-79
2022/07/06 06:02:26;;;;;;;;;;;;;;;24.47;100.00;97457.25;4996490;28;19925;-79
2022/07/06 06:04:52;;;;;;;;;;;;;;;24.89;99.38;97446.59;5012834;28;19913;-80
2022/07/06 06:07:18;;;;;;;;;;;;;;;26.49;89.31;97443.84;5004595;28;19928;-81
2022/07/06 06:09:43;;;;;;;;;;;;;;;26.80;83.46;97436.94;5029050;28;20028;-79
2022/07/06 06:12:09;;;;;;;;;;;;;;;26.74;83.93;97443.19;5028878;28;19992;-79
2022/07/06 06:14:34;;;;;;;;;;;;;;;26.83;84.12;97447.53;5013312;28;20359;-78
2022/07/06 06:16:59;;;;;;;;;;;;;;;28.87;75.92;97445.63;5008508;28;19996;-79
2022/07/06 06:19:25;;;;;;;;;;;;;;;31.02;66.63;97440.28;5001459;28;20539;-79
2022/07/06 06:21:51;;;;;;;;;;;;;;;31.90;60.59;97429.75;5027514;28;20356;-80
2022/07/06 06:24:17;;;;;;;;;;;;;;;32.77;55.81;97431.09;5028457;28;19968;-78
2022/07/06 06:26:42;;;;;;;;;;;;;;;34.12;52.67;97426.25;5010161;28;19925;-79
2022/07/06 06:29:08;;;;;;;;;;;;;;;34.50;51.19;97433.94;4996651;28;20008;-79
2022/07/06 06:31:33;;;;;;;;;;;;;;;33.74;51.25;97426.84;4999323;28;19921;-79
2022/07/06 06:33:59;;;;;;;;;;;;;;;33.60;52.41;97434.56;5016504;28;19960;-80
2022/07/06 06:36:24;;;;;;;;;;;;;;;34.86;50.26;97425.16;5014620;28;19921;-80
2022/07/06 06:38:49;;;;;;;;;;;;;;;34.99;48.17;97421.22;5016474;28;20309;-79
2022/07/06 06:41:15;;;;;;;;;;;;;;;36.08;46.17;97419.56;5014608;28;19920;-80
2022/07/06 06:43:40;;;;;;;;;;;;;;;34.95;47.34;97414.50;5016140;28;19913;-79
2022/07/06 06:46:06;;;;;;;;;;;;;;;35.10;47.68;97423.13;5012488;28;20004;-80
2022/07/06 06:48:31;;;;;;;;;;;;;;;35.87;44.42;97419.25;5015557;28;19924;-80
2022/07/06 06:50:56;;;;;;;;;;;;;;;35.78;44.10;97417.16;5012758;28;19956;-80
2022/07/06 06:53:22;;;;;;;;;;;;;;;35.51;45.85;97419.84;5015787;28;19966;-81
2022/07/06 06:55:47;;;;;;;;;;;;;;;36.36;44.40;97422.13;5015247;28;19917;-80
2022/07/06 06:58:12;;;;;;;;;;;;;;;36.49;43.52;97416.09;5015945;28;19913;-78
2022/07/06 07:00:43;;;;;;;;;;;;;;;36.03;44.18;97411.94;5014598;28;19915;-79
2022/07/06 07:03:10;;;;;;;;;;;;;;;35.90;44.88;97427.09;5016889;28;19917;-80
2022/07/06 07:05:35;;;;;;;;;;;;;;;37.07;42.37;97408.91;5031643;28;19913;-80
2022/07/06 07:08:04;;;;;;;;;;;;;;;37.54;41.42;97406.19;5012177;28;20008;-79
2022/07/06 07:10:29;;;;;;;;;;;;;;;37.53;40.56;97407.31;5013066;28;19916;-79
2022/07/06 07:12:54;;;;;;;;;;;;;;;37.24;39.18;97401.22;5015404;28;20295;-79
2022/07/06 07:15:20;;;;;;;;;;;;;;;38.13;39.06;97398.41;5016220;28;20298;-79
2022/07/06 07:17:52;;;;;;;;;;;;;;;37.88;37.99;97397.16;5013634;28;19916;-80
2022/07/06 07:20:17;;;;;;;;;;;;;;;38.10;37.35;97391.41;5012286;28;19913;-80
2022/07/06 07:22:42;;;;;;;;;;;;;;;37.07;37.78;97400.53;5014137;28;20380;-80
2022/07/06 07:25:08;;;;;;;;;;;;;;;35.59;40.40;97415.81;5015456;28;19912;-80
2022/07/06 07:27:33;;;;;;;;;;;;;;;33.52;44.32;97418.25;5031865;28;19932;-81
2022/07/06 07:29:59;;;;;;;;;;;;;;;33.16;46.30;97418.53;5015269;28;19913;-82
2022/07/06 07:32:24;;;;;;;;;;;;;;;33.40;44.76;97414.66;5012079;28;19917;-80
2022/07/06 07:34:50;;;;;;;;;;;;;;;34.64;43.52;97419.50;5015294;28;20007;-80
2022/07/06 07:37:15;;;;;;;;;;;;;;;34.36;42.84;97411.19;5012087;28;20001;-79
2022/07/06 07:39:41;;;;;;;;;;;;;;;33.34;44.67;97417.56;5014751;28;19917;-79
2022/07/06 07:42:06;;;;;;;;;;;;;;;34.99;42.94;97410.09;5011595;28;19944;-78
2022/07/06 07:44:31;;;;;;;;;;;;;;;33.80;44.35;97406.41;5013174;28;20360;-80
2022/07/06 07:46:57;;;;;;;;;;;;;;;35.05;44.14;97415.50;5014595;28;19913;-80
2022/07/06 07:49:22;;;;;;;;;;;;;;;33.23;44.14;97408.16;5011589;28;20018;-79
2022/07/06 07:51:48;;;;;;;;;;;;;;;33.45;45.70;97414.75;5014569;28;19919;-80
2022/07/06 07:54:13;;;;;;;;;;;;;;;32.66;46.79;97424.47;5014739;28;19913;-79
2022/07/06 07:56:42;;;;;;;;;;;;;;;32.02;48.65;97435.38;5013814;28;19967;-81
2022/07/06 07:59:07;;;;;;;;;;;;;;;31.62;48.49;97422.00;5015416;28;19919;-80
2022/07/06 08:01:33;;;;;;;;;;;;;;;31.79;50.00;97429.69;5014747;28;19913;-80
2022/07/06 08:03:59;;;;;;;;;;;;;;;31.53;50.11;97426.16;5022742;28;19920;-79
2022/07/06 08:06:24;;;;;;;;;;;;;;;31.75;51.09;97432.06;5011528;28;19919;-79
2022/07/06 08:08:52;;;;;;;;;;;;;;;31.42;51.92;97434.34;5015062;28;19913;-79
2022/07/06 08:11:17;;;;;;;;;;;;;;;31.14;52.78;97435.69;5016101;28;19913;-79
2022/07/06 08:13:42;;;;;;;;;;;;;;;31.05;52.45;97430.69;5011368;28;19916;-78
2022/07/06 08:16:09;;;;;;;;;;;;;;;30.73;54.52;97434.56;5014182;28;19970;-78
2022/07/06 08:18:35;;;;;;;;;;;;;;;32.31;49.86;97422.63;5014785;28;19905;-79
2022/07/06 08:21:00;;;;;;;;;;;;;;;33.32;47.25;97417.78;5012129;28;19913;-78
2022/07/06 08:23:25;;;;;;;;;;;;;;;33.87;47.32;97422.94;5013916;28;19917;-77
2022/07/06 08:25:51;;;;;;;;;;;;;;;33.51;47.10;97415.72;5013657;28;20364;-79
2022/07/06 08:28:16;;;;;;;;;;;;;;;32.76;49.26;97425.81;5030882;28;19913;-79
2022/07/06 08:30:42;;;;;;;;;;;;;;;33.49;47.05;97418.75;5017673;28;19959;-80
2022/07/06 08:33:10;;;;;;;;;;;;;;;34.46;44.51;97414.13;5006347;28;20349;-79
2022/07/06 08:35:35;;;;;;;;;;;;;;;34.37;44.43;97420.34;5005808;28;20415;-79
2022/07/06 08:38:03;;;;;;;;;;;;;;;33.93;44.06;97422.81;5011554;28;19913;-78
2022/07/06 08:40:31;;;;;;;;;;;;;;;34.78;43.13;97415.31;5002956;28;19913;-79
2022/07/06 08:42:56;;;;;;;;;;;;;;;34.82;42.58;97404.53;4996748;28;19921;-78
2022/07/06 08:45:22;;;;;;;;;;;;;;;35.19;42.19;97410.47;5010148;28;20427;-78
2022/07/06 08:47:49;;;;;;;;;;;;;;;35.30;41.41;97390.03;5010413;28;19968;-79
2022/07/06 08:50:14;;;;;;;;;;;;;;;35.43;40.33;97399.97;5010417;28;19922;-79
2022/07/06 08:52:40;;;;;;;;;;;;;;;34.60;42.07;97398.88;5010265;28;20300;-80
2022/07/06 08:55:05;;;;;;;;;;;;;;;33.98;42.74;97402.59;4994236;28;19920;-81
2022/07/06 08:57:31;;;;;;;;;;;;;;;33.14;44.67;97399.34;5010364;28;19917;-79
2022/07/06 08:59:56;;;;;;;;;;;;;;;34.31;42.89;97406.38;4994196;28;20347;-79
2022/07/06 09:02:27;;;;;;;;;;;;;;;34.05;42.36;97406.09;5010180;28;19917;-79
2022/07/06 09:04:57;;;;;;;;;;;;;;;33.20;43.65;97403.09;4998028;28;19935;-79
2022/07/06 09:07:22;;;;;;;;;;;;;;;32.72;44.37;97406.88;5005166;28;19913;-79
2022/07/06 09:09:49;;;;;;;;;;;;;;;32.54;46.19;97412.50;5010470;28;19956;-79
2022/07/06 09:12:14;;;;;;;;;;;;;;;31.98;47.15;97417.53;5010410;28;19913;-80
2022/07/06 09:14:39;;;;;;;;;;;;;;;30.94;49.42;97420.34;5002211;28;19920;-79
2022/07/06 09:17:05;;;;;;;;;;;;;;;29.96;50.83;97413.59;5009938;28;19920;-80
2022/07/06 09:19:31;;;;;;;;;;;;;;;29.63;53.86;97427.47;5004576;28;19913;-80
2022/07/06 09:21:56;;;;;;;;;;;;;;;29.34;55.22;97431.63;5001393;28;19917;-80
2022/07/06 09:24:22;;;;;;;;;;;;;;;28.85;56.19;97428.47;5013950;28;19913;-79
2022/07/06 09:26:47;;;;;;;;;;;;;;;28.50;57.11;97434.16;4997674;28;20020;-79
2022/07/06 09:29:13;;;;;;;;;;;;;;;28.30;57.98;97440.69;4997543;28;20324;-79
2022/07/06 09:31:39;;;;;;;;;;;;;;;28.23;59.05;97442.59;4997774;28;20029;-78
2022/07/06 09:34:10;;;;;;;;;;;;;;;28.07;59.85;97437.47;5013876;28;19950;-79
2022/07/06 09:36:42;;;;;;;;;;;;;;;27.87;61.24;97440.13;5014125;28;19913;-79
2022/07/06 09:39:16;;;;;;;;;;;;;;;27.93;62.13;97442.88;4997715;28;20392;-79
2022/07/06 09:41:42;;;;;;;;;;;;;;;27.90;60.46;97434.22;5014827;28;19924;-79
2022/07/06 09:44:08;;;;;;;;;;;;;;;28.03;60.16;97428.72;5013499;28;19913;-77
2022/07/06 09:46:38;;;;;;;;;;;;;;;28.37;58.34;97423.13;5013508;28;20419;-79
2022/07/06 09:49:03;;;;;;;;;;;;;;;28.23;59.16;97426.94;5029726;28;19920;-79
2022/07/06 09:51:32;;;;;;;;;;;;;;;28.47;59.22;97418.06;4997133;28;19913;-79
2022/07/06 09:54:00;;;;;;;;;;;;;;;28.35;58.74;97422.50;4997444;28;19905;-80
2022/07/06 09:56:37;;;;;;;;;;;;;;;28.58;57.66;97418.50;4997017;28;20391;-79
2022/07/06 09:59:05;;;;;;;;;;;;;;;28.84;56.67;97411.09;5013805;28;19905;-78
2022/07/06 10:01:30;;;;;;;;;;;;;;;29.93;54.67;97406.56;5009772;28;19913;-80
2022/07/06 10:03:56;;;;;;;;;;;;;;;30.29;52.91;97400.44;4994800;28;20404;-79
2022/07/06 10:06:23;;;;;;;;;;;;;;;30.72;52.60;97408.84;4996865;28;20300;-77
2022/07/06 10:08:48;;;;;;;;;;;;;;;30.42;52.36;97405.91;4996848;28;19913;-78
2022/07/06 10:11:14;;;;;;;;;;;;;;;31.03;52.00;97402.44;4997020;28;20296;-78
2022/07/06 10:13:40;;;;;;;;;;;;;;;30.82;52.06;97405.59;4996971;28;19917;-79
2022/07/06 10:16:05;;;;;;;;;;;;;;;30.80;51.38;97386.44;5012981;28;20403;-79
2022/07/06 10:18:31;;;;;;;;;;;;;;;30.82;51.60;97389.84;4996595;28;19972;-79
2022/07/06 10:20:58;;;;;;;;;;;;;;;30.96;51.93;97409.94;4996583;28;19913;-79
2022/07/06 10:23:23;;;;;;;;;;;;;;;30.51;52.77;97412.00;4996812;28;20376;-79
2022/07/06 10:25:49;;;;;;;;;;;;;;;30.55;53.92;97411.31;5004498;28;19913;-79
2022/07/06 10:28:14;;;;;;;;;;;;;;;30.51;56.93;97423.91;5012894;28;19979;-79
2022/07/06 10:30:40;;;;;;;;;;;;;;;30.53;56.88;97418.13;5011797;28;19921;-79
2022/07/06 10:33:05;;;;;;;;;;;;;;;30.44;56.87;97417.56;5012775;28;20047;-79
2022/07/06 10:35:31;;;;;;;;;;;;;;;30.33;57.21;97426.50;5012452;28;19918;-78
2022/07/06 10:38:09;;;;;;;;;;;;;;;30.40;57.41;97426.50;5012826;28;19948;-78
2022/07/06 10:43:19;;;;;;;;;;;;;;;29.75;57.21;97417.47;5014199;28;19979;-79
2022/07/06 10:45:48;;;;;;;;;;;;;;;29.77;59.04;97431.91;5008256;28;19913;-78
2022/07/06 10:48:15;;;;;;;;;;;;;;;29.25;63.60;97452.22;5005753;28;20435;-79
2022/07/06 10:50:43;;;;;;;;;;;;;;;28.75;65.88;97456.44;5006523;28;19928;-79
2022/07/06 10:53:12;;;;;;;;;;;;;;;28.27;70.44;97443.88;5009720;28;19955;-78
2022/07/06 10:55:39;;;;;;;;;;;;;;;27.74;72.60;97451.94;5012101;28;19987;-79
2022/07/06 10:58:04;;;;;;;;;;;;;;;26.97;77.38;97451.22;5003948;28;19913;-79
2022/07/06 11:01:00;;;;;;;;;;;;;;;26.58;76.03;97439.91;5000650;28;19924;-78
2022/07/06 11:03:35;;;;;;;;;;;;;;;26.40;85.97;97440.34;5016045;28;19971;-78
2022/07/06 11:06:01;;;;;;;;;;;;;;;26.37;82.92;97419.66;5012056;28;19936;-78
2022/07/06 11:08:45;;;;;;;;;;;;;;;26.53;82.21;97436.88;5011932;28;20004;-78
2022/07/06 11:11:16;;;;;;;;;;;;;;;26.53;82.38;97429.50;4992265;28;19980;-79
2022/07/06 11:13:42;;;;;;;;;;;;;;;26.78;78.17;97421.69;4993254;28;19919;-80
2022/07/06 11:16:08;;;;;;;;;;;;;;;26.89;74.47;97419.25;5011796;28;20075;-79
2022/07/06 11:18:40;;;;;;;;;;;;;;;27.14;74.82;97411.41;4999840;28;19945;-78
2022/07/06 11:21:18;;;;;;;;;;;;;;;27.46;74.22;97420.91;4995074;28;19922;-79
2022/07/06 11:23:45;;;;;;;;;;;;;;;28.30;72.96;97414.00;5011925;28;19922;-80
2022/07/06 11:26:10;;;;;;;;;;;;;;;28.82;65.70;97407.72;5012036;28;20369;-78
2022/07/06 11:28:36;;;;;;;;;;;;;;;29.24;64.92;97409.16;5011751;28;19913;-80
2022/07/06 11:31:01;;;;;;;;;;;;;;;29.63;61.86;97410.09;5011498;28;19972;-80
2022/07/06 11:33:30;;;;;;;;;;;;;;;30.23;60.53;97404.09;5011753;28;19921;-80
2022/07/06 11:36:14;;;;;;;;;;;;;;;30.27;60.20;97404.50;4997931;28;19913;-80
2022/07/06 11:38:40;;;;;;;;;;;;;;;30.06;59.15;97401.00;5010432;28;19909;-78
2022/07/06 11:41:06;;;;;;;;;;;;;;;29.56;57.56;97399.94;5002859;28;19921;-79
2022/07/06 11:43:31;;;;;;;;;;;;;;;29.43;59.68;97401.91;5003275;28;19917;-78
2022/07/06 11:45:57;;;;;;;;;;;;;;;29.88;58.10;97391.75;4997579;28;19943;-79
2022/07/06 11:48:22;;;;;;;;;;;;;;;30.05;58.01;97395.72;5011459;28;20127;-79
2022/07/06 11:50:58;;;;;;;;;;;;;;;30.84;55.41;97381.31;4995238;28;19959;-79
2022/07/06 11:53:23;;;;;;;;;;;;;;;32.00;52.96;97376.59;4995829;28;20598;-79
2022/07/06 11:55:48;;;;;;;;;;;;;;;33.04;48.34;97351.13;5011228;28;19972;-78
2022/07/06 11:58:14;;;;;;;;;;;;;;;33.84;47.63;97357.63;4995359;28;20011;-80
2022/07/06 12:00:39;;;;;;;;;;;;;;;34.83;44.24;97350.59;5011235;28;20347;-80
2022/07/06 12:03:04;;;;;;;;;;;;;;;34.81;43.76;97347.25;5000888;28;19967;-80
2022/07/06 12:05:30;;;;;;;;;;;;;;;34.81;43.02;97331.41;5011464;28;19920;-80
2022/07/06 12:08:05;;;;;;;;;;;;;;;35.10;43.13;97334.09;5011447;28;20467;-79
2022/07/06 12:10:37;;;;;;;;;;;;;;;36.43;41.39;97334.38;5011184;28;19921;-80
2022/07/06 12:13:03;;;;;;;;;;;;;;;37.39;38.53;97321.19;5003400;28;19913;-80
2022/07/06 12:15:29;;;;;;;;;;;;;;;36.24;39.70;97318.31;5004522;28;20328;-80
2022/07/06 12:17:54;;;;;;;;;;;;;;;33.40;44.71;97334.22;4999748;28;20139;-80
2022/07/06 12:20:19;;;;;;;;;;;;;;;32.76;46.30;97343.53;5012644;28;19913;-81
2022/07/06 12:22:45;;;;;;;;;;;;;;;32.72;46.62;97332.06;4995589;28;19918;-80
2022/07/06 12:25:10;;;;;;;;;;;;;;;31.72;48.25;97338.47;4994394;28;19917;-80
2022/07/06 12:27:35;;;;;;;;;;;;;;;31.10;50.39;97343.22;4994420;28;19917;-80
2022/07/06 12:30:08;;;;;;;;;;;;;;;31.59;49.04;97335.91;4994317;28;19920;-79
2022/07/06 12:32:36;;;;;;;;;;;;;;;32.76;46.03;97331.59;4994223;28;19917;-80
2022/07/06 12:35:05;;;;;;;;;;;;;;;33.57;44.65;97329.56;4994716;28;19914;-80
2022/07/06 12:37:30;;;;;;;;;;;;;;;34.47;42.40;97310.22;5010302;28;20387;-80
2022/07/06 12:39:55;;;;;;;;;;;;;;;35.64;40.97;97307.31;4994130;28;19914;-80
2022/07/06 12:42:21;;;;;;;;;;;;;;;35.67;41.31;97313.19;5009023;28;19917;-81
2022/07/06 12:44:47;;;;;;;;;;;;;;;35.48;41.51;97309.03;5010528;28;19988;-81
2022/07/06 12:47:13;;;;;;;;;;;;;;;35.90;40.00;97298.16;5010279;28;19939;-79